Time;durP1;ratioP1;P1;durP2;ratioP2;P2;SDS_P1;SDS_P2;PMS_P1;PMS_P2;Temp;Humidity;BMP_temperature;BMP_pressure;BME280_temperature;BME280_humidity;BME280_pressure;Samples;Min_cycle;Max_cycle;Signal;HPM_P1;HPM_P2
2021/06/18 00:01:36;;;;;;;2.37;0.80;;;;;;;20.53;39.08;100732.75;4381582;32;20167;-76
2021/06/18 00:04:02;;;;;;;5.00;0.90;;;;;;;20.44;39.30;100732.94;4372277;32;20691;-76
2021/06/18 00:06:28;;;;;;;1.52;0.90;;;;;;;20.34;39.36;100731.53;4374938;32;21166;-76
2021/06/18 00:08:53;;;;;;;2.45;0.82;;;;;;;20.26;39.48;100736.13;4375862;32;20073;-76
2021/06/18 00:11:19;;;;;;;4.93;1.02;;;;;;;20.20;39.67;100726.72;4374558;32;20042;-76
2021/06/18 00:13:46;;;;;;;3.80;1.12;;;;;;;20.07;39.94;100734.09;4371755;32;20466;-77
2021/06/18 00:16:12;;;;;;;6.68;1.15;;;;;;;19.97;40.22;100733.47;4376857;32;20208;-77
2021/06/18 00:18:39;;;;;;;4.80;0.90;;;;;;;19.89;40.35;100735.22;4375184;32;20047;-76
2021/06/18 00:21:05;;;;;;;2.87;0.80;;;;;;;19.90;40.37;100733.91;4373531;32;20031;-76
2021/06/18 00:23:30;;;;;;;4.35;1.17;;;;;;;19.86;40.54;100730.50;4372302;32;20404;-76
2021/06/18 00:25:56;;;;;;;3.67;1.00;;;;;;;19.85;40.73;100728.91;4373823;32;20034;-76
2021/06/18 00:28:21;;;;;;;2.12;1.00;;;;;;;19.79;40.92;100728.09;4376397;32;20078;-76
2021/06/18 00:30:47;;;;;;;2.80;1.00;;;;;;;19.72;41.14;100728.53;4372116;32;20133;-76
2021/06/18 00:33:13;;;;;;;5.30;1.12;;;;;;;19.75;41.07;100734.03;4369600;32;20435;-76
2021/06/18 00:35:38;;;;;;;4.65;1.00;;;;;;;19.77;41.13;100737.16;4375250;32;20379;-77
2021/06/18 00:38:04;;;;;;;6.15;1.00;;;;;;;19.76;41.20;100737.66;4375945;32;20166;-76
2021/06/18 00:40:30;;;;;;;5.55;1.08;;;;;;;19.71;41.30;100736.31;4374241;32;20576;-77
2021/06/18 00:42:55;;;;;;;4.50;1.20;;;;;;;19.67;41.34;100734.97;4374468;32;20054;-75
2021/06/18 00:45:22;;;;;;;3.80;1.08;;;;;;;19.64;41.48;100731.03;4375171;32;20106;-76
2021/06/18 00:47:53;;;;;;;2.53;1.00;;;;;;;19.70;41.40;100731.87;4372885;32;20491;-76
2021/06/18 00:50:20;;;;;;;1.80;1.00;;;;;;;19.56;41.70;100734.81;4375637;32;20074;-77
2021/06/18 00:52:46;;;;;;;3.75;1.17;;;;;;;19.66;41.58;100727.66;4374636;32;20096;-77
2021/06/18 00:55:12;;;;;;;3.28;1.23;;;;;;;19.65;41.74;100734.69;4375586;32;20487;-76
2021/06/18 00:57:38;;;;;;;3.45;1.10;;;;;;;19.74;41.56;100728.81;4371646;32;20169;-75
2021/06/18 01:00:07;;;;;;;1.33;0.77;;;;;;;19.77;41.56;100727.81;4370078;32;20062;-76
2021/06/18 01:02:33;;;;;;;3.22;1.10;;;;;;;19.77;41.54;100724.94;4372158;32;20070;-76
2021/06/18 01:05:00;;;;;;;3.85;0.85;;;;;;;19.75;41.61;100741.78;4375743;32;20418;-76
2021/06/18 01:07:32;;;;;;;2.20;0.88;;;;;;;19.82;41.53;100743.44;4372690;32;20022;-76
2021/06/18 01:12:39;;;;;;;2.65;1.00;;;;;;;20.42;40.81;100738.34;4421875;31;821540;-75
2021/06/18 01:15:32;;;;;;;5.78;1.05;;;;;;;20.42;40.81;100738.34;4447956;32;20105;-75
2021/06/18 01:18:02;;;;;;;3.97;0.80;;;;;;;20.00;41.38;100741.03;4447473;32;20471;-76
2021/06/18 01:23:32;;;;;;;2.35;0.95;;;;;;;20.59;40.78;100736.41;4433769;31;680959;-75
2021/06/18 01:26:03;;;;;;;3.20;0.75;;;;;;;20.59;40.78;100736.41;4455418;32;20076;-75
2021/06/18 01:28:54;;;;;;;3.83;1.00;;;;;;;20.16;nan;100726.19;4454583;32;20025;-75
2021/06/18 01:31:25;;;;;;;3.12;1.00;;;;;;;20.19;41.28;100730.09;4452174;32;20101;-77
2021/06/18 01:33:58;;;;;;;2.95;0.80;;;;;;;20.15;41.37;100736.03;4453027;32;20072;-76
2021/06/18 01:36:26;;;;;;;4.62;1.00;;;;;;;20.15;41.37;100736.03;4454700;32;21128;-76
2021/06/18 01:38:55;;;;;;;3.50;0.80;;;;;;;20.19;41.23;100733.72;4455276;32;20247;-75
2021/06/18 01:41:25;;;;;;;1.98;0.93;;;;;;;20.23;41.26;100737.16;4453589;32;21474;-76
2021/06/18 01:43:53;;;;;;;2.83;0.95;;;;;;;20.22;41.45;100743.38;4453408;32;20087;-75
2021/06/18 01:46:24;;;;;;;3.20;0.82;;;;;;;20.26;41.32;100744.72;4455075;32;20424;-76
2021/06/18 01:49:05;;;;;;;3.60;0.90;;;;;;;20.26;41.43;100747.56;4456078;32;20025;-76
2021/06/18 01:51:32;;;;;;;3.83;0.73;;;;;;;20.29;41.45;100748.63;4454811;32;20533;-76
2021/06/18 01:54:00;;;;;;;5.03;1.30;;;;;;;20.34;41.35;100750.75;4456284;32;20419;-77
2021/06/18 01:56:28;;;;;;;13.85;2.10;;;;;;;20.33;41.50;100763.47;4456633;32;20100;-76
2021/06/18 01:58:58;;;;;;;3.00;0.80;;;;;;;20.36;41.51;100762.44;4454302;32;20037;-76
2021/06/18 02:01:30;;;;;;;2.40;0.80;;;;;;;20.36;41.65;100768.16;4441780;32;20088;-76
2021/06/18 02:03:56;;;;;;;4.12;0.75;;;;;;;20.37;41.66;100769.75;4439029;32;20081;-76
2021/06/18 02:06:24;;;;;;;2.62;1.20;;;;;;;20.33;41.77;100763.47;4440901;32;20101;-76
2021/06/18 02:08:55;;;;;;;1.70;0.98;;;;;;;20.34;41.96;100773.63;4438206;32;20088;-76
2021/06/18 02:11:24;;;;;;;3.67;0.98;;;;;;;20.33;42.08;100769.97;4436575;32;20061;-76
2021/06/18 02:13:52;;;;;;;3.28;0.90;;;;;;;20.36;41.93;100771.81;4438611;32;20038;-76
2021/06/18 02:16:18;;;;;;;2.15;0.90;;;;;;;20.28;42.18;100779.25;4437796;32;20069;-76
2021/06/18 02:18:46;;;;;;;4.25;1.10;;;;;;;20.29;42.29;100780.06;4439985;32;20094;-76
2021/06/18 02:21:14;;;;;;;2.53;0.90;;;;;;;20.26;42.42;100775.34;4438869;32;20065;-75
2021/06/18 02:23:41;;;;;;;5.22;1.23;;;;;;;20.24;42.61;100783.63;4437641;32;20151;-76
2021/06/18 02:26:08;;;;;;;3.03;1.05;;;;;;;20.18;42.67;100783.59;4438749;32;20101;-75
2021/06/18 02:28:35;;;;;;;4.45;1.62;;;;;;;20.17;42.84;100786.94;4438196;32;20089;-76
2021/06/18 02:31:02;;;;;;;2.85;0.82;;;;;;;20.19;42.81;100787.25;4434986;32;20481;-76
2021/06/18 02:33:28;;;;;;;4.30;1.00;;;;;;;20.11;42.95;100780.34;4429317;32;20535;-76
2021/06/18 02:35:54;;;;;;;2.70;1.00;;;;;;;20.00;43.21;100778.16;4428692;32;20096;-77
2021/06/18 02:38:20;;;;;;;3.20;0.73;;;;;;;19.89;43.67;100780.91;4429031;32;20089;-76
2021/06/18 02:40:47;;;;;;;3.37;0.98;;;;;;;19.96;43.53;100773.97;4426433;32;20108;-76
2021/06/18 02:43:13;;;;;;;5.37;1.10;;;;;;;19.93;43.78;100772.09;4429365;32;20669;-76
2021/06/18 02:45:39;;;;;;;3.05;0.88;;;;;;;19.90;43.94;100771.03;4441130;32;20462;-77
2021/06/18 02:50:46;;;;;;;3.83;1.20;;;;;;;20.14;44.07;100774.47;4386220;31;1881607;-76
2021/06/18 02:58:31;;;;;;;2.90;1.10;;;;;;;20.08;44.44;100779.31;4442242;31;659248;-76
2021/06/18 03:00:57;;;;;;;2.72;1.30;;;;;;;20.08;44.44;100779.31;4456916;32;20107;-76
2021/06/18 03:03:29;;;;;;;4.53;0.90;;;;;;;19.70;45.06;100776.78;4458342;32;20041;-76
2021/06/18 03:06:01;;;;;;;4.60;1.20;;;;;;;19.72;45.00;100771.34;4462110;32;20064;-77
2021/06/18 03:08:39;;;;;;;2.15;0.90;;;;;;;19.70;45.23;100773.94;4460878;32;20072;-76
2021/06/18 03:11:05;;;;;;;4.43;1.10;;;;;;;19.61;45.47;100766.28;4462599;32;20107;-76
2021/06/18 03:13:39;;;;;;;3.15;0.93;;;;;;;19.71;45.30;100773.44;4461116;32;20034;-76
2021/06/18 03:16:08;;;;;;;3.50;1.02;;;;;;;19.75;45.26;100773.19;4461441;32;20040;-77
2021/06/18 03:18:36;;;;;;;4.00;1.15;;;;;;;19.73;45.43;100770.84;4462672;32;20038;-77
2021/06/18 03:21:04;;;;;;;5.70;1.10;;;;;;;19.75;45.64;100778.91;4459471;32;20496;-76
2021/06/18 03:23:31;;;;;;;5.07;1.25;;;;;;;19.58;46.28;100773.00;4463215;32;20037;-77
2021/06/18 03:26:02;;;;;;;7.30;1.65;;;;;;;19.51;46.55;100781.19;4461944;32;20068;-77
2021/06/18 03:28:28;;;;;;;3.60;1.10;;;;;;;19.42;46.88;100789.94;4459201;32;20177;-74
2021/06/18 03:30:55;;;;;;;6.30;1.25;;;;;;;19.46;46.84;100781.94;4459625;32;20091;-75
2021/06/18 03:33:22;;;;;;;4.47;1.10;;;;;;;19.47;46.97;100784.28;4458038;32;20118;-75
2021/06/18 03:35:48;;;;;;;4.72;1.15;;;;;;;19.51;46.88;100786.91;4446764;32;20483;-75
2021/06/18 03:38:15;;;;;;;6.82;1.60;;;;;;;19.46;47.19;100787.62;4461215;32;20052;-75
2021/06/18 03:40:42;;;;;;;3.17;1.10;;;;;;;19.47;47.23;100789.19;4446791;32;20077;-75
2021/06/18 03:43:09;;;;;;;5.25;1.23;;;;;;;19.45;47.34;100786.84;4448430;32;20025;-75
2021/06/18 03:45:38;;;;;;;8.45;1.25;;;;;;;19.40;47.50;100795.34;4462631;32;20057;-75
2021/06/18 03:48:05;;;;;;;9.30;1.60;;;;;;;19.26;47.77;100796.13;4461382;32;20132;-75
2021/06/18 03:50:34;;;;;;;5.95;1.30;;;;;;;19.23;48.01;100797.13;4460861;32;20089;-75
2021/06/18 03:53:01;;;;;;;7.55;1.85;;;;;;;19.31;47.67;100799.13;4459633;32;20140;-75
2021/06/18 03:55:28;;;;;;;5.22;1.40;;;;;;;19.25;47.82;100798.22;4462961;32;20102;-75
2021/06/18 03:57:55;;;;;;;3.97;1.23;;;;;;;19.35;47.69;100811.09;4459935;32;20067;-75
2021/06/18 04:00:21;;;;;;;2.70;1.30;;;;;;;19.43;47.64;100815.09;4458753;32;20291;-75
2021/06/18 04:02:49;;;;;;;4.28;1.30;;;;;;;19.36;48.04;100812.66;4458360;32;20139;-75
2021/06/18 04:05:20;;;;;;;7.30;1.35;;;;;;;19.36;47.92;100815.50;4461192;32;20033;-75
2021/06/18 04:07:49;;;;;;;4.87;1.40;;;;;;;19.37;47.80;100810.59;4461184;32;20084;-75
2021/06/18 04:10:17;;;;;;;3.42;1.30;;;;;;;19.35;47.96;100821.72;4449787;32;20041;-75
2021/06/18 04:12:44;;;;;;;3.83;1.60;;;;;;;19.31;47.96;100819.09;4449001;32;20135;-75
2021/06/18 04:15:11;;;;;;;4.65;1.35;;;;;;;19.21;48.13;100816.84;4456270;32;20103;-75
2021/06/18 04:17:40;;;;;;;5.22;1.30;;;;;;;19.24;48.11;100816.59;4453158;32;20089;-75
2021/06/18 04:20:07;;;;;;;3.28;1.65;;;;;;;19.09;48.35;100815.09;4451525;32;20029;-75
2021/06/18 04:22:34;;;;;;;6.87;1.87;;;;;;;19.08;48.50;100822.84;4447618;32;20505;-75
2021/06/18 04:25:01;;;;;;;5.10;1.27;;;;;;;19.08;48.46;100819.19;4452843;32;20052;-75
2021/06/18 04:27:27;;;;;;;3.58;1.20;;;;;;;19.01;48.41;100823.25;4451503;32;20093;-75
2021/06/18 04:29:53;;;;;;;5.47;1.50;;;;;;;19.06;48.46;100816.87;4450812;32;20376;-75
2021/06/18 04:32:19;;;;;;;7.43;2.10;;;;;;;19.15;48.37;100818.81;4450640;32;20544;-75
2021/06/18 04:34:45;;;;;;;3.25;1.10;;;;;;;19.07;48.51;100824.13;4451119;32;20089;-75
2021/06/18 04:37:11;;;;;;;4.32;1.42;;;;;;;19.15;48.38;100831.00;4451415;32;20077;-76
2021/06/18 04:39:37;;;;;;;4.10;1.52;;;;;;;18.89;49.09;100829.28;4454606;32;20987;-76
2021/06/18 04:42:04;;;;;;;7.78;1.90;;;;;;;18.99;48.91;100837.22;4455469;32;20037;-76
2021/06/18 04:44:30;;;;;;;7.95;2.00;;;;;;;19.06;48.84;100834.00;4453499;32;20330;-76
2021/06/18 04:46:56;;;;;;;4.53;1.35;;;;;;;19.01;48.93;100828.19;4449375;32;20052;-76
2021/06/18 04:49:21;;;;;;;3.50;1.12;;;;;;;18.99;48.89;100834.38;4451140;32;20140;-75
2021/06/18 04:51:47;;;;;;;4.80;1.60;;;;;;;19.09;48.68;100826.50;4449003;32;20154;-75
2021/06/18 04:54:13;;;;;;;7.07;1.65;;;;;;;19.12;48.72;100825.50;4452851;32;20071;-75
2021/06/18 04:56:40;;;;;;;3.50;1.37;;;;;;;19.00;48.82;100827.41;4452585;32;20096;-75
2021/06/18 04:59:07;;;;;;;5.85;1.40;;;;;;;19.16;48.38;100821.16;4448826;32;20095;-75
2021/06/18 05:01:32;;;;;;;4.75;1.20;;;;;;;19.17;48.15;100833.34;4449610;32;20103;-75
2021/06/18 05:03:58;;;;;;;4.22;1.00;;;;;;;19.24;47.81;100832.97;4448892;32;20065;-76
2021/06/18 05:06:24;;;;;;;5.95;1.30;;;;;;;19.31;47.62;100833.37;4451960;32;20107;-75
2021/06/18 05:08:51;;;;;;;8.85;2.03;;;;;;;19.37;47.43;100836.28;4452541;32;20028;-75
2021/06/18 05:11:20;;;;;;;5.55;1.40;;;;;;;19.10;47.85;100848.81;4433726;32;20436;-76
2021/06/18 05:13:46;;;;;;;6.57;1.65;;;;;;;19.13;47.78;100833.56;4450701;32;20516;-75
2021/06/18 05:16:11;;;;;;;1.70;1.00;;;;;;;19.22;47.36;100835.50;4450313;32;20042;-75
2021/06/18 05:18:37;;;;;;;7.55;1.55;;;;;;;19.24;47.26;100838.66;4449879;32;20040;-75
2021/06/18 05:21:03;;;;;;;4.97;1.62;;;;;;;19.09;47.57;100829.34;4449019;32;20427;-76
2021/06/18 05:23:29;;;;;;;3.95;1.12;;;;;;;19.24;47.23;100835.81;4448694;32;20143;-75
2021/06/18 05:25:54;;;;;;;4.97;1.23;;;;;;;19.33;46.94;100836.47;4453735;32;20385;-76
2021/06/18 05:28:20;;;;;;;5.62;1.30;;;;;;;19.44;46.75;100835.88;4447892;32;20104;-75
2021/06/18 05:30:46;;;;;;;2.78;1.17;;;;;;;19.46;46.72;100839.78;4452836;32;20048;-76
2021/06/18 05:33:11;;;;;;;3.25;1.30;;;;;;;19.43;46.70;100829.34;4447132;32;20132;-75
2021/06/18 05:35:41;;;;;;;4.90;1.40;;;;;;;19.45;46.81;100834.56;4448864;32;20033;-75
2021/06/18 05:38:07;;;;;;;3.90;1.17;;;;;;;19.60;46.33;100841.00;4446067;32;20085;-75
2021/06/18 05:40:33;;;;;;;4.55;1.40;;;;;;;19.56;46.43;100841.25;4446258;32;21243;-76
2021/06/18 05:42:58;;;;;;;7.68;1.45;;;;;;;19.60;46.20;100843.87;4451661;32;20037;-75
2021/06/18 05:45:24;;;;;;;5.65;1.30;;;;;;;19.64;45.99;100835.91;4449612;32;20433;-75
2021/06/18 05:47:50;;;;;;;4.25;1.23;;;;;;;19.68;45.98;100840.13;4445159;32;20044;-75
2021/06/18 05:50:16;;;;;;;3.85;1.37;;;;;;;19.73;45.96;100839.38;4449461;32;20072;-75
2021/06/18 05:52:41;;;;;;;8.00;1.42;;;;;;;19.77;45.72;100848.53;4447450;32;21775;-75
2021/06/18 05:55:08;;;;;;;12.02;1.85;;;;;;;19.72;45.95;100845.59;4449849;32;20636;-75
2021/06/18 05:57:35;;;;;;;4.45;1.40;;;;;;;19.68;45.86;100845.81;4447967;32;20083;-75
2021/06/18 06:00:04;;;;;;;6.95;1.70;;;;;;;19.73;45.74;100850.03;4445536;32;20026;-74
2021/06/18 06:02:30;;;;;;;13.27;5.05;;;;;;;19.79;45.67;100851.66;4443210;32;20171;-76
2021/06/18 06:04:56;;;;;;;2.62;1.45;;;;;;;19.79;45.73;100840.25;4449336;32;20072;-76
2021/06/18 06:07:22;;;;;;;4.72;1.33;;;;;;;19.76;45.59;100852.66;4453199;32;20131;-75
2021/06/18 06:09:47;;;;;;;6.90;1.33;;;;;;;19.83;45.40;100860.78;4447380;32;20077;-75
2021/06/18 06:12:13;;;;;;;4.12;1.10;;;;;;;19.90;45.28;100871.03;4450504;32;20505;-75
2021/06/18 06:14:39;;;;;;;5.32;1.45;;;;;;;19.77;45.46;100874.25;4446932;32;20157;-75
2021/06/18 06:17:04;;;;;;;4.53;1.33;;;;;;;19.83;45.45;100865.75;4448299;32;20040;-74
2021/06/18 06:19:30;;;;;;;8.38;1.87;;;;;;;19.86;45.53;100859.03;4434234;32;20081;-74
2021/06/18 06:21:56;;;;;;;4.47;1.25;;;;;;;19.92;45.34;100871.31;4448781;32;20141;-75
2021/06/18 06:24:22;;;;;;;6.40;1.87;;;;;;;19.92;45.15;100885.59;4448820;32;20077;-75
2021/06/18 06:26:48;;;;;;;5.30;1.08;;;;;;;19.95;45.16;100880.94;4446500;32;20065;-75
2021/06/18 06:29:13;;;;;;;6.95;1.52;;;;;;;20.09;44.89;100888.66;4444320;32;20037;-75
2021/06/18 06:31:43;;;;;;;5.60;1.30;;;;;;;20.09;44.61;100880.87;4441086;32;20096;-75
2021/06/18 06:34:09;;;;;;;6.70;1.80;;;;;;;20.17;44.47;100884.09;4432431;32;20057;-75
2021/06/18 06:36:35;;;;;;;5.72;1.70;;;;;;;20.13;44.56;100875.78;4448952;32;20075;-75
2021/06/18 06:39:02;;;;;;;5.70;1.50;;;;;;;20.26;44.28;100876.19;4444989;32;20077;-75
2021/06/18 06:41:28;;;;;;;5.68;1.50;;;;;;;20.31;44.00;100881.16;4440802;32;20101;-75
2021/06/18 06:43:54;;;;;;;8.52;1.60;;;;;;;20.43;43.52;100885.72;4436199;32;20148;-77
2021/06/18 06:46:21;;;;;;;3.90;1.62;;;;;;;20.23;44.05;100899.25;4441632;32;20491;-75
2021/06/18 06:48:48;;;;;;;10.77;2.00;;;;;;;20.36;43.93;100903.31;4438795;32;20040;-75
2021/06/18 06:51:14;;;;;;;5.18;1.33;;;;;;;20.62;43.58;100906.19;4439182;32;20079;-76
2021/06/18 06:53:41;;;;;;;9.60;1.67;;;;;;;20.64;43.39;100904.41;4432966;32;20076;-76
2021/06/18 06:56:06;;;;;;;5.93;1.95;;;;;;;20.71;43.25;100901.06;4428370;32;20065;-78
2021/06/18 06:58:32;;;;;;;5.37;1.40;;;;;;;20.54;43.50;100894.41;4430547;32;20108;-77
2021/06/18 07:00:58;;;;;;;9.38;2.10;;;;;;;20.69;43.25;100894.31;4418090;32;20193;-77
2021/06/18 07:03:24;;;;;;;5.35;1.67;;;;;;;20.62;43.56;100891.91;4425678;32;21075;-77
2021/06/18 07:05:49;;;;;;;6.95;2.53;;;;;;;20.88;42.83;100887.72;4428821;32;20123;-77
2021/06/18 07:08:25;;;;;;;5.82;1.87;;;;;;;20.91;43.12;100880.22;4423907;32;20103;-77
2021/06/18 07:10:53;;;;;;;7.47;1.98;;;;;;;21.16;42.72;100885.94;4427746;32;20065;-77
2021/06/18 07:13:20;;;;;;;5.10;1.75;;;;;;;20.92;43.15;100878.91;4423008;32;20150;-78
2021/06/18 07:15:47;;;;;;;8.68;1.85;;;;;;;20.95;43.15;100878.72;4419593;32;20117;-77
2021/06/18 07:18:13;;;;;;;6.82;3.00;;;;;;;21.12;42.85;100882.53;4424521;32;20172;-77
2021/06/18 07:20:39;;;;;;;4.90;2.00;;;;;;;21.38;42.42;100877.50;4425450;32;20136;-78
2021/06/18 07:23:05;;;;;;;7.53;2.65;;;;;;;21.51;42.15;100885.66;4409839;32;20508;-78
2021/06/18 07:25:31;;;;;;;10.25;2.80;;;;;;;21.72;42.14;100894.91;4414924;32;20340;-78
2021/06/18 07:27:58;;;;;;;7.28;2.47;;;;;;;21.51;42.61;100882.81;4424503;32;20107;-78
2021/06/18 07:30:23;;;;;;;7.80;2.50;;;;;;;21.58;42.70;100885.97;4426710;32;20389;-79
2021/06/18 07:32:51;;;;;;;6.60;2.37;;;;;;;21.62;42.72;100897.97;4424896;32;20444;-78
2021/06/18 07:35:17;;;;;;;7.93;2.47;;;;;;;21.83;42.64;100889.25;4428308;32;20104;-78
2021/06/18 07:37:44;;;;;;;9.00;2.50;;;;;;;22.18;41.82;100881.09;4425743;32;20464;-78
2021/06/18 07:40:12;;;;;;;8.80;2.53;;;;;;;22.29;41.67;100881.91;4429753;32;21989;-80
2021/06/18 07:42:38;;;;;;;8.52;2.50;;;;;;;22.56;41.42;100897.66;4426426;32;20081;-77
2021/06/18 07:45:05;;;;;;;7.70;2.60;;;;;;;22.42;41.81;100890.00;4431283;32;20033;-81
2021/06/18 07:47:30;;;;;;;7.22;2.37;;;;;;;22.50;42.00;100888.25;4431122;32;20104;-79
2021/06/18 07:49:56;;;;;;;4.57;2.62;;;;;;;22.77;41.54;100890.41;4435879;32;20099;-80
2021/06/18 07:52:23;;;;;;;10.20;2.53;;;;;;;23.05;41.22;100862.50;4429176;32;20098;-79
2021/06/18 07:54:52;;;;;;;7.62;2.60;;;;;;;23.09;41.27;100860.13;4433644;32;20098;-78
2021/06/18 07:57:17;;;;;;;7.47;2.15;;;;;;;22.77;42.15;100867.44;4429983;32;20049;-76
2021/06/18 07:59:43;;;;;;;9.60;3.15;;;;;;;22.92;42.09;100863.00;4433882;32;20596;-76
2021/06/18 08:02:09;;;;;;;8.05;3.37;;;;;;;23.05;42.11;100869.03;4431405;32;20101;-79
2021/06/18 08:04:35;;;;;;;11.07;3.10;;;;;;;23.22;42.14;100869.78;4432107;32;20492;-79
2021/06/18 08:07:01;;;;;;;6.90;2.90;;;;;;;23.36;41.69;100874.53;4432602;32;20106;-79
2021/06/18 08:09:27;;;;;;;10.07;3.60;;;;;;;23.32;41.84;100870.34;4430615;32;20037;-79
2021/06/18 08:11:52;;;;;;;8.32;3.00;;;;;;;23.46;41.54;100875.00;4430872;32;21004;-78
2021/06/18 08:14:18;;;;;;;10.80;3.70;;;;;;;23.49;41.51;100876.84;4432711;32;20059;-76
2021/06/18 08:16:44;;;;;;;10.45;3.40;;;;;;;23.68;41.24;100877.06;4433035;32;20081;-76
2021/06/18 08:19:10;;;;;;;16.92;3.92;;;;;;;23.54;41.39;100887.53;4435016;32;20083;-78
2021/06/18 08:21:36;;;;;;;11.12;3.80;;;;;;;23.49;41.90;100874.75;4432996;32;20067;-81
2021/06/18 08:24:03;;;;;;;12.00;3.40;;;;;;;23.42;42.44;100874.50;4428716;32;20072;-79
2021/06/18 08:26:29;;;;;;;13.00;3.97;;;;;;;23.73;41.79;100877.03;4429276;32;20103;-78
2021/06/18 08:28:55;;;;;;;11.73;3.65;;;;;;;23.97;41.43;100883.03;4430668;32;20092;-78
2021/06/18 08:31:21;;;;;;;11.25;4.05;;;;;;;24.08;41.28;100877.22;4427150;32;20629;-78
2021/06/18 08:33:47;;;;;;;13.50;4.43;;;;;;;24.37;40.82;100879.44;4429549;32;20715;-76
2021/06/18 08:36:13;;;;;;;9.95;3.60;;;;;;;24.40;40.57;100874.72;4431681;32;20084;-77
2021/06/18 08:38:43;;;;;;;10.65;3.92;;;;;;;24.58;40.38;100883.47;4415216;32;20468;-76
2021/06/18 08:41:09;;;;;;;16.20;3.95;;;;;;;24.73;40.16;100880.28;4427152;32;20582;-77
2021/06/18 08:43:36;;;;;;;14.25;4.28;;;;;;;24.66;40.29;100870.13;4418315;32;20114;-76
2021/06/18 08:46:03;;;;;;;17.25;4.87;;;;;;;24.69;40.42;100877.69;4432405;32;20097;-77
2021/06/18 08:48:30;;;;;;;14.55;4.80;;;;;;;24.74;40.65;100871.13;4429973;32;20567;-76
2021/06/18 08:50:58;;;;;;;12.82;4.70;;;;;;;24.58;41.09;100871.97;4431153;32;20104;-78
2021/06/18 08:53:25;;;;;;;14.95;5.00;;;;;;;24.42;41.67;100867.09;4429200;32;21176;-76
2021/06/18 08:55:52;;;;;;;8.63;4.62;;;;;;;24.26;42.33;100865.09;4429364;32;20102;-77
2021/06/18 08:58:17;;;;;;;12.32;5.32;;;;;;;24.10;42.92;100865.97;4428784;32;20532;-75
2021/06/18 09:00:44;;;;;;;9.88;4.53;;;;;;;23.82;43.47;100850.09;4430176;32;20156;-77
2021/06/18 09:06:28;;;;;;;12.60;4.80;;;;;;;24.48;42.69;100850.59;4401509;31;786121;-76
2021/06/18 09:14:39;;;;;;;10.98;4.12;;;;;;;24.45;42.70;100843.03;4425554;31;678741;-76
2021/06/18 09:22:38;;;;;;;15.00;4.30;;;;;;;24.22;41.78;100844.47;4397045;32;699595;-76
2021/06/18 09:25:09;;;;;;;5.82;3.20;;;;;;;24.22;41.78;100844.47;4420904;32;21128;-77
2021/06/18 09:27:42;;;;;;;16.02;3.67;;;;;;;24.05;41.46;100845.88;4417636;32;20112;-78
2021/06/18 09:30:30;;;;;;;10.75;3.70;;;;;;;24.35;40.99;100853.28;4421714;32;20200;-80
2021/06/18 09:36:04;;;;;;;12.75;3.42;;;;;;;25.30;38.42;100851.28;4405108;31;690795;-78
2021/06/18 09:38:53;;;;;;;14.02;3.00;;;;;;;25.30;38.42;100851.28;4414315;32;20064;-81
2021/06/18 09:41:43;;;;;;;9.80;3.30;;;;;;;24.91;38.76;100857.37;4414175;32;20448;-79
2021/06/18 09:44:24;;;;;;;10.32;3.58;;;;;;;25.22;37.85;100850.31;4417475;32;20099;-78
2021/06/18 09:52:13;;;;;;;11.30;3.95;;;;;;;25.72;37.78;100850.59;4429691;31;662410;-75
2021/06/18 09:54:43;;;;;;;15.45;3.80;;;;;;;25.72;37.78;100850.59;4440962;32;20160;-77
2021/06/18 10:02:47;;;;;;;8.10;3.17;;;;;;;26.71;35.93;100842.75;4409646;31;708995;-79
2021/06/18 10:07:53;;;;;;;8.98;3.90;;;;;;;26.03;37.02;100841.34;4393115;32;1379401;-76
2021/06/18 10:10:25;;;;;;;12.90;3.20;;;;;;;26.03;37.02;100841.34;4427342;32;20474;-77
2021/06/18 10:12:52;;;;;;;11.48;3.28;;;;;;;25.68;37.39;100826.28;4425812;32;20072;-76
2021/06/18 10:15:20;;;;;;;9.80;3.35;;;;;;;25.45;37.51;100828.62;4428343;32;21028;-76
2021/06/18 10:17:48;;;;;;;9.50;3.25;;;;;;;25.28;37.67;100825.12;4415027;32;20049;-76
2021/06/18 10:20:19;;;;;;;12.25;2.80;;;;;;;24.99;38.51;100826.69;4426035;32;20081;-77
2021/06/18 10:25:34;;;;;;;11.98;3.78;;;;;;;23.76;42.41;100830.00;4420848;31;685588;-75
2021/06/18 10:28:09;;;;;;;11.30;3.62;;;;;;;23.76;42.41;100830.00;4439731;32;20080;-76
2021/06/18 10:38:44;;;;;;;9.75;3.33;;;;;;;22.94;43.93;100816.56;4421441;31;747304;-76
2021/06/18 10:49:10;;;;;;;11.43;2.95;;;;;;;22.80;43.55;100811.88;4411337;31;705826;-75
2021/06/18 10:54:36;;;;;;;13.23;2.90;;;;;;;22.44;44.44;100810.78;4402153;32;667044;-77
2021/06/18 10:57:05;;;;;;;10.43;3.40;;;;;;;22.44;44.44;100810.78;4427182;32;20076;-77
2021/06/18 11:07:44;;;;;;;14.68;3.17;;;;;;;22.04;46.33;100819.00;4358096;32;692205;-76
2021/06/18 11:12:49;;;;;;;14.07;3.35;;;;;;;21.54;47.54;100810.94;4409494;31;727600;-80
2021/06/18 11:23:13;;;;;;;15.15;3.37;;;;;;;21.59;51.18;100807.34;4419659;31;689264;-81
2021/06/18 11:33:51;;;;;;;13.07;3.95;;;;;;;20.67;56.31;100816.81;4412814;31;671134;-78
2021/06/18 11:38:58;;;;;;;7.20;2.97;;;;;;;19.61;58.35;100800.53;4420385;31;682500;-77
2021/06/18 11:41:29;;;;;;;6.60;3.12;;;;;;;19.61;58.35;100800.53;4429101;32;20114;-80
2021/06/18 11:43:57;;;;;;;7.35;2.90;;;;;;;19.00;60.01;100804.59;4422948;32;20064;-77
2021/06/18 11:46:26;;;;;;;8.98;3.15;;;;;;;18.81;60.14;100806.06;4429118;32;20517;-79
2021/06/18 11:48:55;;;;;;;6.75;2.92;;;;;;;18.65;60.82;100800.13;4430270;32;20111;-78
2021/06/18 11:51:24;;;;;;;9.30;2.80;;;;;;;18.53;61.68;100798.34;4432644;32;20147;-80
2021/06/18 11:53:50;;;;;;;7.95;2.83;;;;;;;18.59;61.53;100794.31;4424720;32;20144;-80
2021/06/18 11:56:16;;;;;;;9.00;2.75;;;;;;;18.60;62.33;100809.34;4430170;32;20154;-79
2021/06/18 11:58:45;;;;;;;6.12;2.83;;;;;;;18.50;61.91;100800.09;4430238;32;21031;-79
2021/06/18 12:03:52;;;;;;;9.43;2.95;;;;;;;19.14;62.61;100809.47;4414255;31;835865;-80
2021/06/18 12:06:21;;;;;;;4.68;2.50;;;;;;;19.14;62.61;100809.47;4425945;32;20115;-78
2021/06/18 12:14:51;;;;;;;6.40;3.97;;;;;;;19.06;61.68;100805.47;4410635;31;697362;-80
2021/06/18 12:17:17;;;;;;;10.38;2.72;;;;;;;19.06;61.68;100805.47;4436379;32;20052;-78
2021/06/18 12:19:44;;;;;;;7.45;2.83;;;;;;;18.44;62.64;100799.22;4436480;32;20092;-78
2021/06/18 12:22:30;;;;;;;5.95;2.97;;;;;;;18.43;63.66;100799.72;4434563;32;20081;-79
2021/06/18 12:24:59;;;;;;;8.85;4.18;;;;;;;18.33;63.87;100798.22;4432058;32;20157;-85
2021/06/18 12:27:30;;;;;;;11.48;3.97;;;;;;;18.19;64.84;100791.22;4430725;32;20104;-79
2021/06/18 12:29:59;;;;;;;9.77;4.47;;;;;;;18.13;66.13;100787.50;4435337;32;20091;-75
2021/06/18 12:32:29;;;;;;;13.23;4.12;;;;;;;18.27;66.48;100794.47;4430499;32;20682;-77
2021/06/18 12:37:36;;;;;;;12.85;4.30;;;;;;;18.56;66.56;100785.97;4416733;31;689522;-76
2021/06/18 12:48:06;;;;;;;14.40;5.43;;;;;;;19.42;66.55;100781.38;4411019;32;677711;-77
2021/06/18 12:50:43;;;;;;;15.07;6.65;;;;;;;19.42;66.55;100781.38;4421395;32;20463;-78
2021/06/18 12:53:12;;;;;;;15.05;6.93;;;;;;;18.94;68.36;100771.56;4421961;32;20067;-78
2021/06/18 12:58:22;;;;;;;10.80;6.35;;;;;;;19.53;67.53;100775.78;4416784;31;690305;-77
2021/06/18 13:03:29;;;;;;;9.57;4.13;;;;;;;19.47;66.61;100775.72;4387215;32;1426994;-78
2021/06/18 13:05:56;;;;;;;11.98;3.90;;;;;;;19.47;66.61;100775.72;4431949;32;20509;-78
2021/06/18 13:08:22;;;;;;;12.35;4.03;;;;;;;19.05;67.02;100774.59;4433781;32;20076;-80
2021/06/18 13:10:51;;;;;;;13.07;4.45;;;;;;;19.01;67.10;100777.62;4431982;32;20123;-78
2021/06/18 13:13:22;;;;;;;13.52;4.90;;;;;;;18.95;67.92;100771.06;4435570;32;20084;-76
2021/06/18 13:15:48;;;;;;;13.88;5.03;;;;;;;18.97;69.16;100774.22;4436677;32;20123;-79
2021/06/18 13:18:14;;;;;;;9.00;4.32;;;;;;;18.98;69.84;100772.13;4436527;32;20079;-79
2021/06/18 13:20:40;;;;;;;12.45;4.75;;;;;;;19.05;68.91;100763.94;4432164;32;20112;-81
2021/06/18 13:26:06;;;;;;;12.35;5.00;;;;;;;18.68;67.52;100760.00;4420876;31;692628;-81
2021/06/18 13:28:49;;;;;;;13.00;4.60;;;;;;;18.61;67.81;100759.59;4427979;32;20106;-78